Time;durP1;ratioP1;P1;durP2;ratioP2;P2;SDS_P1;SDS_P2;PMS_P1;PMS_P2;Temp;Humidity;BMP_temperature;BMP_pressure;BME280_temperature;BME280_humidity;BME280_pressure;Samples;Min_cycle;Max_cycle;Signal;HPM_P1;HPM_P2
2024/03/08 00:00:58;;;;;;;30.45;16.63;;;13.70;65.80;;;;;;4223808;27;20128;-44
2024/03/08 00:03:40;;;;;;;30.27;17.83;;;13.70;66.60;;;;;;4206570;28;20519;-48
2024/03/08 00:06:21;;;;;;;;;;;13.70;67.20;;;;;;4241281;27;20058;-47
2024/03/08 00:09:04;;;;;;;27.98;18.50;;;13.70;67.10;;;;;;4240036;27;20340;-44
2024/03/08 00:11:44;;;;;;;30.90;18.13;;;13.70;68.30;;;;;;4200063;27;20048;-45
2024/03/08 00:14:26;;;;;;;29.42;18.50;;;13.60;67.20;;;;;;4190310;28;20101;-45
2024/03/08 00:17:07;;;;;;;25.77;16.52;;;13.70;66.30;;;;;;4199273;28;20059;-43
2024/03/08 00:19:49;;;;;;;28.27;17.83;;;13.60;66.60;;;;;;4208080;28;20083;-44
2024/03/08 00:22:31;;;;;;;28.70;17.77;;;13.60;66.10;;;;;;4205881;28;20051;-45
2024/03/08 00:25:14;;;;;;;28.92;17.73;;;13.60;65.80;;;;;;4228669;27;20326;-44
2024/03/08 00:27:55;;;;;;;30.52;19.30;;;13.60;66.30;;;;;;4240375;27;20050;-44
2024/03/08 00:30:37;;;;;;;32.28;19.15;;;13.60;67.40;;;;;;4218752;27;20195;-45
2024/03/08 00:33:18;;;;;;;27.08;17.02;;;13.60;67.20;;;;;;4206566;28;20864;-45
2024/03/08 00:35:59;;;;;;;27.10;18.58;;;13.60;67.90;;;;;;4209291;27;20107;-47
2024/03/08 00:38:40;;;;;;;28.30;19.05;;;13.50;68.10;;;;;;4205297;28;20132;-50
2024/03/08 00:41:23;;;;;;;32.70;19.08;;;13.50;68.50;;;;;;4202803;27;20385;-48
2024/03/08 00:44:04;;;;;;;28.52;16.92;;;13.60;69.50;;;;;;4224985;27;20411;-51
2024/03/08 00:46:45;;;;;;;32.65;19.50;;;13.60;70.10;;;;;;4239905;27;20057;-50
2024/03/08 00:49:27;;;;;;;26.83;17.35;;;13.70;70.10;;;;;;4239491;27;20054;-54
2024/03/08 00:52:08;;;;;;;30.77;17.10;;;13.80;70.00;;;;;;4207542;28;20440;-49
2024/03/08 00:54:49;;;;;;;30.75;18.33;;;13.80;70.20;;;;;;4193594;28;20067;-49
2024/03/08 00:57:32;;;;;;;31.73;19.83;;;13.80;70.00;;;;;;4191908;28;20051;-48
2024/03/08 01:00:14;;;;;;;31.25;18.70;;;13.80;71.30;;;;;;4186611;28;20451;-51
2024/03/08 01:02:55;;;;;;;;;;;13.90;72.00;;;;;;4207092;28;20173;-51
2024/03/08 01:05:36;;;;;;;31.08;18.73;;;14.00;71.70;;;;;;4208736;28;19926;-51
2024/03/08 01:08:17;;;;;;;28.30;18.05;;;14.00;71.60;;;;;;4239835;27;20054;-49
2024/03/08 01:10:58;;;;;;;30.48;18.02;;;14.10;71.30;;;;;;4240069;27;20069;-51
2024/03/08 01:13:41;;;;;;;30.63;19.40;;;14.20;71.20;;;;;;4197091;27;20523;-51
2024/03/08 01:16:22;;;;;;;33.97;17.88;;;14.20;71.00;;;;;;4190562;28;20071;-51
2024/03/08 01:19:03;;;;;;;30.23;18.20;;;14.20;71.00;;;;;;4190653;28;20097;-54
2024/03/08 01:21:44;;;;;;;27.00;17.38;;;14.30;70.30;;;;;;4230809;27;20070;-51
2024/03/08 01:24:25;;;;;;;29.13;17.85;;;14.30;70.20;;;;;;4190550;28;20064;-51
2024/03/08 01:27:07;;;;;;;33.53;20.50;;;14.30;68.80;;;;;;4193791;28;20059;-50
2024/03/08 01:29:50;;;;;;;30.00;18.45;;;14.30;68.00;;;;;;4189473;28;20201;-54
2024/03/08 01:32:31;;;;;;;25.95;17.42;;;14.30;67.30;;;;;;4196751;28;20059;-53
2024/03/08 01:35:12;;;;;;;31.13;18.83;;;14.30;67.00;;;;;;4210135;28;20058;-45
2024/03/08 01:37:54;;;;;;;29.63;19.02;;;14.30;66.40;;;;;;4220368;27;20066;-46
2024/03/08 01:40:35;;;;;;;29.80;20.77;;;14.30;66.90;;;;;;4219078;27;20074;-46
2024/03/08 01:43:21;;;;;;;28.27;17.30;;;14.20;64.00;;;;;;4218186;27;20510;-45
2024/03/08 01:46:04;;;;;;;29.70;18.30;;;14.20;64.80;;;;;;4222211;27;20054;-47
2024/03/08 01:48:46;;;;;;;26.92;16.92;;;14.20;67.20;;;;;;4221510;27;20055;-45
2024/03/08 01:51:28;;;;;;;27.17;18.42;;;14.30;67.00;;;;;;4216048;28;20059;-45
2024/03/08 01:54:10;;;;;;;;;;;14.40;65.00;;;;;;4191804;28;20101;-46
2024/03/08 01:56:53;;;;;;;28.25;17.42;;;14.40;64.10;;;;;;4189998;28;19926;-45
2024/03/08 01:59:34;;;;;;;28.33;17.08;;;14.50;65.40;;;;;;4195112;28;20161;-45
2024/03/08 02:02:20;;;;;;;28.90;17.92;;;14.50;65.70;;;;;;4206222;28;20082;-44
2024/03/08 02:05:03;;;;;;;29.48;18.52;;;14.50;65.90;;;;;;4205076;28;20488;-51
2024/03/08 02:07:44;;;;;;;25.00;16.30;;;14.50;67.10;;;;;;4191072;28;20063;-49
2024/03/08 02:10:25;;;;;;;24.70;16.58;;;14.60;66.70;;;;;;4204795;28;20050;-51
2024/03/08 02:13:07;;;;;;;28.73;17.67;;;14.60;66.40;;;;;;4205107;28;20409;-44
2024/03/08 02:15:52;;;;;;;25.73;16.65;;;14.60;67.20;;;;;;4208202;27;20075;-46
2024/03/08 02:18:35;;;;;;;26.63;17.92;;;14.60;66.80;;;;;;4229708;27;20095;-45
2024/03/08 02:21:19;;;;;;;23.80;16.23;;;14.60;66.60;;;;;;4188217;28;20090;-47
2024/03/08 02:24:01;;;;;;;26.08;16.70;;;14.60;67.20;;;;;;4204585;28;20496;-45
2024/03/08 02:26:42;;;;;;;31.42;18.45;;;14.70;67.70;;;;;;4205757;27;20109;-47
2024/03/08 02:29:25;;;;;;;25.60;17.67;;;14.70;66.80;;;;;;4220214;27;20052;-44
2024/03/08 02:32:06;;;;;;;29.52;16.08;;;14.70;63.30;;;;;;4207255;28;20155;-48
2024/03/08 02:34:48;;;;;;;26.30;16.17;;;14.70;64.00;;;;;;4230219;27;20514;-44
2024/03/08 02:37:30;;;;;;;26.90;16.55;;;14.60;65.10;;;;;;4224325;27;20506;-44
2024/03/08 02:40:12;;;;;;;18.98;12.75;;;14.60;66.40;;;;;;4227043;27;20046;-50
2024/03/08 02:42:54;;;;;;;26.95;17.75;;;14.60;64.00;;;;;;4202972;27;20174;-49
2024/03/08 02:45:35;;;;;;;27.13;16.73;;;14.70;63.50;;;;;;4204218;28;20606;-51
2024/03/08 02:48:17;;;;;;;27.55;16.90;;;14.80;62.60;;;;;;4219340;28;20526;-50
2024/03/08 02:50:58;;;;;;;24.98;17.45;;;14.80;64.50;;;;;;4220910;28;20518;-49
2024/03/08 02:53:42;;;;;;;28.67;17.02;;;14.90;65.80;;;;;;4186839;28;20064;-50
2024/03/08 02:56:24;;;;;;;29.25;18.05;;;15.00;62.50;;;;;;4198238;28;20047;-51
2024/03/08 02:59:05;;;;;;;24.23;16.23;;;15.00;63.20;;;;;;4188749;28;20055;-50
2024/03/08 03:01:46;;;;;;;30.67;16.27;;;15.00;61.90;;;;;;4231949;27;20527;-50
2024/03/08 03:04:27;;;;;;;25.20;17.08;;;15.10;63.10;;;;;;4220432;28;20090;-52
2024/03/08 03:07:09;;;;;;;26.23;17.17;;;15.00;62.50;;;;;;4204401;28;20055;-50
2024/03/08 03:09:51;;;;;;;24.27;16.10;;;15.00;60.60;;;;;;4203969;28;20051;-49
2024/03/08 03:12:33;;;;;;;25.77;16.33;;;14.90;61.00;;;;;;4205329;27;20178;-51
2024/03/08 03:15:16;;;;;;;25.98;17.92;;;14.80;62.50;;;;;;4192973;28;20059;-51
2024/03/08 03:17:57;;;;;;;25.27;15.80;;;14.70;63.40;;;;;;4194383;28;20059;-50
2024/03/08 03:20:40;;;;;;;23.60;16.17;;;14.70;63.30;;;;;;4194618;28;20096;-49
2024/03/08 03:23:22;;;;;;;23.42;16.10;;;14.80;61.80;;;;;;4205049;28;20047;-51
2024/03/08 03:26:07;;;;;;;24.58;14.18;;;14.80;62.30;;;;;;4204798;27;20186;-50
2024/03/08 03:28:48;;;;;;;24.38;15.57;;;14.90;63.70;;;;;;4201851;28;20059;-53
2024/03/08 03:31:30;;;;;;;23.13;16.38;;;14.90;63.00;;;;;;4189936;28;20070;-54
2024/03/08 03:34:11;;;;;;;25.20;15.80;;;14.90;64.60;;;;;;4193652;27;20059;-50
2024/03/08 03:36:55;;;;;;;24.65;14.90;;;14.90;65.30;;;;;;4207030;28;20051;-49
2024/03/08 03:39:44;;;;;;;25.50;16.25;;;14.90;65.10;;;;;;4200233;28;20404;-49
2024/03/08 03:42:26;;;;;;;26.20;17.15;;;14.80;64.80;;;;;;4203353;28;20140;-49
2024/03/08 03:45:09;;;;;;;23.90;14.93;;;14.80;63.40;;;;;;4205212;28;20657;-49
2024/03/08 03:47:51;;;;;;;22.40;15.15;;;14.80;62.90;;;;;;4220071;28;20059;-50
2024/03/08 03:50:34;;;;;;;24.65;15.13;;;14.70;61.80;;;;;;4205485;28;20491;-50
2024/03/08 03:53:16;;;;;;;25.67;15.27;;;14.70;61.80;;;;;;4191474;27;20055;-52
2024/03/08 03:55:57;;;;;;;20.92;14.55;;;14.70;63.20;;;;;;4202217;28;20499;-53
2024/03/08 03:58:39;;;;;;;;;;;14.70;64.50;;;;;;4209546;28;20113;-50
2024/03/08 04:01:21;;;;;;;24.83;15.05;;;14.70;62.90;;;;;;4204844;28;19930;-50
2024/03/08 04:04:01;;;;;;;25.65;15.68;;;14.80;62.80;;;;;;4185220;28;20056;-50
2024/03/08 04:06:43;;;;;;;22.52;15.90;;;14.80;60.70;;;;;;4203481;28;20058;-49
2024/03/08 04:09:25;;;;;;;21.60;14.32;;;14.80;59.30;;;;;;4196955;28;20186;-50
2024/03/08 04:12:07;;;;;;;23.30;16.17;;;14.70;58.80;;;;;;4190530;28;20136;-52
2024/03/08 04:14:49;;;;;;;24.38;15.60;;;14.60;60.10;;;;;;4220547;28;20058;-50
2024/03/08 04:17:31;;;;;;;24.38;14.98;;;14.60;59.60;;;;;;4220655;27;20510;-50
2024/03/08 04:20:13;;;;;;;23.33;15.40;;;14.70;62.30;;;;;;4222850;27;20078;-49
2024/03/08 04:22:54;;;;;;;25.40;16.63;;;14.80;61.00;;;;;;4222588;27;20055;-50
2024/03/08 04:25:35;;;;;;;24.90;16.65;;;14.80;61.30;;;;;;4216684;27;20062;-51
2024/03/08 04:28:17;;;;;;;31.60;17.45;;;14.80;60.30;;;;;;4207163;27;20055;-49
2024/03/08 04:31:00;;;;;;;;;;;14.90;59.50;;;;;;4209055;28;20051;-51
2024/03/08 04:33:41;;;;;;;21.92;14.88;;;14.90;59.60;;;;;;4223091;27;20710;-52
2024/03/08 04:36:24;;;;;;;19.13;14.15;;;14.80;59.70;;;;;;4218047;27;20046;-53
2024/03/08 04:39:05;;;;;;;24.20;15.07;;;14.80;59.30;;;;;;4213901;28;20435;-48
2024/03/08 04:41:46;;;;;;;20.83;14.50;;;14.80;59.00;;;;;;4222719;27;20447;-50
2024/03/08 04:44:27;;;;;;;21.08;14.00;;;14.80;59.90;;;;;;4206327;28;20491;-49
2024/03/08 04:47:10;;;;;;;19.33;13.70;;;14.70;60.40;;;;;;4206480;28;20507;-49
2024/03/08 04:49:52;;;;;;;21.38;12.95;;;14.70;62.20;;;;;;4207389;28;20108;-49
2024/03/08 04:52:33;;;;;;;24.13;15.48;;;14.70;61.40;;;;;;4206427;28;20059;-50
2024/03/08 04:55:14;;;;;;;29.40;14.43;;;14.70;63.00;;;;;;4223085;27;20054;-50
2024/03/08 04:57:55;;;;;;;27.85;14.00;;;14.60;62.10;;;;;;4205587;28;20058;-51
2024/03/08 05:00:36;;;;;;;27.67;14.75;;;14.60;64.10;;;;;;4209200;28;20059;-51
2024/03/08 05:03:18;;;;;;;22.40;13.75;;;14.70;64.80;;;;;;4207478;28;20059;-45
2024/03/08 05:05:59;;;;;;;18.80;13.20;;;14.80;63.40;;;;;;4212978;28;20117;-44
2024/03/08 05:08:40;;;;;;;20.35;14.13;;;14.90;64.00;;;;;;4206475;28;20425;-47
2024/03/08 05:11:21;;;;;;;21.83;13.98;;;15.00;63.60;;;;;;4217599;28;20062;-48
2024/03/08 05:14:03;;;;;;;20.80;13.15;;;15.00;64.20;;;;;;4189347;28;20186;-44
2024/03/08 05:16:48;;;;;;;20.13;12.52;;;15.10;63.10;;;;;;4195622;28;20054;-45
2024/03/08 05:19:31;;;;;;;19.30;13.25;;;15.10;63.80;;;;;;4195324;28;20055;-45
2024/03/08 05:22:14;;;;;;;18.58;14.23;;;15.10;63.80;;;;;;4199177;28;20170;-44
2024/03/08 05:24:55;;;;;;;20.00;13.73;;;15.10;63.80;;;;;;4205716;28;20051;-45
2024/03/08 05:27:37;;;;;;;19.17;13.68;;;15.00;63.30;;;;;;4200558;28;20777;-47
2024/03/08 05:30:18;;;;;;;23.95;14.05;;;14.90;63.10;;;;;;4207426;27;20392;-46
2024/03/08 05:33:01;;;;;;;25.88;13.27;;;14.90;64.50;;;;;;4217869;27;20055;-47
2024/03/08 05:35:44;;;;;;;;;;;14.80;63.80;;;;;;4205709;28;20055;-47
2024/03/08 05:38:25;;;;;;;17.60;12.57;;;14.90;64.80;;;;;;4205425;28;19931;-45
2024/03/08 05:41:07;;;;;;;20.38;13.35;;;14.80;65.40;;;;;;4222335;28;20128;-48
2024/03/08 05:43:48;;;;;;;20.10;13.13;;;14.80;65.60;;;;;;4222516;27;20128;-44
2024/03/08 05:46:30;;;;;;;19.83;13.02;;;14.80;65.60;;;;;;4206391;28;20063;-46
2024/03/08 05:49:11;;;;;;;18.02;13.18;;;14.80;65.20;;;;;;4204839;28;20051;-46
2024/03/08 05:51:54;;;;;;;20.42;12.82;;;14.80;64.90;;;;;;4206141;28;20055;-50
2024/03/08 06:04:09;;;;;;;18.00;12.82;;;15.20;64.40;;;;;;4042605;29;20048;-56
2024/03/08 06:06:51;;;;;;;19.15;13.02;;;15.30;64.50;;;;;;4043470;29;20063;-56
2024/03/08 06:09:34;;;;;;;22.20;13.65;;;15.30;63.10;;;;;;4036507;29;20220;-57
2024/03/08 06:12:18;;;;;;;18.67;12.52;;;15.30;63.30;;;;;;4028604;29;20059;-55
2024/03/08 06:14:59;;;;;;;18.70;12.68;;;15.40;63.30;;;;;;4028237;29;20124;-56
2024/03/08 06:17:40;;;;;;;16.92;12.43;;;15.40;63.90;;;;;;4028474;29;20489;-52
2024/03/08 06:20:26;;;;;;;16.52;12.77;;;15.40;63.50;;;;;;4028666;29;20056;-53
2024/03/08 06:23:06;;;;;;;18.92;12.70;;;15.40;63.50;;;;;;4028103;29;20425;-55
2024/03/08 06:25:49;;;;;;;20.42;12.60;;;15.30;63.40;;;;;;4029919;29;20644;-53
2024/03/08 06:28:30;;;;;;;19.45;12.80;;;15.30;63.40;;;;;;4034414;29;20080;-54
2024/03/08 06:31:11;;;;;;;19.17;13.43;;;15.30;64.30;;;;;;4027817;29;20056;-54
2024/03/08 06:33:54;;;;;;;20.63;13.30;;;15.30;63.50;;;;;;4027573;29;20780;-53
2024/03/08 06:36:37;;;;;;;19.45;12.73;;;15.40;64.00;;;;;;4028367;29;20060;-52
2024/03/08 06:39:19;;;;;;;19.58;12.88;;;15.40;63.80;;;;;;4041168;29;20191;-53
2024/03/08 06:42:01;;;;;;;20.63;13.95;;;15.50;64.00;;;;;;4031886;29;20209;-52
2024/03/08 06:44:48;;;;;;;19.52;13.82;;;15.50;63.40;;;;;;4043774;29;20501;-57
2024/03/08 06:47:29;;;;;;;19.75;12.43;;;15.50;61.60;;;;;;4043067;29;20123;-56
2024/03/08 06:50:11;;;;;;;19.75;13.32;;;15.40;62.50;;;;;;4042970;29;20100;-53
2024/03/08 06:52:53;;;;;;;19.70;12.63;;;15.40;63.90;;;;;;4043406;29;20108;-53
2024/03/08 06:55:35;;;;;;;19.33;12.73;;;15.30;62.90;;;;;;4043036;29;20075;-52
2024/03/08 06:58:17;;;;;;;;;;;15.30;62.50;;;;;;4035023;29;20128;-52
2024/03/08 07:01:00;;;;;;;20.58;12.95;;;15.30;61.90;;;;;;4058322;29;19949;-52
2024/03/08 07:03:44;;;;;;;19.17;13.10;;;15.20;60.80;;;;;;4050678;29;20063;-53
2024/03/08 07:06:25;;;;;;;18.65;13.65;;;15.10;60.50;;;;;;4030095;29;20060;-52
2024/03/08 07:09:06;;;;;;;18.05;14.07;;;14.90;60.30;;;;;;4040932;29;20060;-56
2024/03/08 07:11:53;;;;;;;20.85;14.13;;;14.80;60.90;;;;;;4043576;29;20051;-52
2024/03/08 07:14:40;;;;;;;19.23;13.85;;;14.80;60.40;;;;;;4042864;29;20056;-52
2024/03/08 07:17:22;;;;;;;19.60;14.13;;;14.80;60.90;;;;;;4029446;29;20186;-53
2024/03/08 07:20:07;;;;;;;;;;;14.80;60.40;;;;;;4027790;29;20060;-55
2024/03/08 07:22:50;;;;;;;18.85;12.57;;;14.80;59.50;;;;;;4027521;29;20313;-56
2024/03/08 07:25:31;;;;;;;19.13;12.88;;;14.80;60.60;;;;;;4027198;29;20064;-54
2024/03/08 07:28:12;;;;;;;19.15;14.43;;;14.80;59.90;;;;;;4038946;29;20060;-56
2024/03/08 07:31:08;;;;;;;;;;;14.90;58.30;;;;;;4041042;29;20197;-55
2024/03/08 07:33:50;;;;;;;20.20;12.38;;;15.00;58.60;;;;;;4041506;29;20391;-54
2024/03/08 07:36:31;;;;;;;19.63;13.43;;;15.00;59.10;;;;;;4040381;29;20103;-56
2024/03/08 07:39:13;;;;;;;23.58;14.32;;;15.00;57.30;;;;;;4030050;29;20846;-56
2024/03/08 07:41:55;;;;;;;20.17;14.38;;;15.10;58.40;;;;;;4027291;29;20097;-56
2024/03/08 07:44:36;;;;;;;21.67;12.98;;;15.10;57.40;;;;;;4029819;29;20063;-57
2024/03/08 07:47:18;;;;;;;19.88;14.18;;;15.20;57.60;;;;;;4029704;29;20418;-57
2024/03/08 07:50:02;;;;;;;19.52;14.30;;;15.30;58.40;;;;;;4029111;29;20060;-57
2024/03/08 07:52:44;;;;;;;22.08;14.07;;;15.30;55.60;;;;;;4033319;29;20079;-57
2024/03/08 07:55:26;;;;;;;18.30;14.43;;;15.40;55.50;;;;;;4016773;29;20051;-57
2024/03/08 07:58:09;;;;;;;21.05;13.60;;;15.40;55.90;;;;;;4030298;29;20063;-57
2024/03/08 08:00:50;;;;;;;20.75;14.27;;;15.50;56.30;;;;;;4029891;29;20052;-58
2024/03/08 08:03:32;;;;;;;22.25;14.75;;;15.50;56.30;;;;;;4039441;29;20059;-57
2024/03/08 08:06:15;;;;;;;23.05;14.05;;;15.40;55.80;;;;;;4045361;29;20052;-58
2024/03/08 08:08:56;;;;;;;22.75;14.10;;;15.40;55.80;;;;;;4045532;29;20083;-58
2024/03/08 08:11:38;;;;;;;21.90;16.20;;;15.50;55.70;;;;;;4045576;29;20068;-58
2024/03/08 08:14:21;;;;;;;;;;;15.50;55.70;;;;;;4030049;29;20060;-57
2024/03/08 08:17:04;;;;;;;22.30;14.75;;;15.60;56.10;;;;;;4030153;29;19934;-58
2024/03/08 08:19:47;;;;;;;18.20;11.80;;;15.60;55.30;;;;;;4014370;29;20060;-58
2024/03/08 08:22:28;;;;;;;21.33;16.02;;;15.60;54.70;;;;;;4014722;29;20547;-57
2024/03/08 08:25:11;;;;;;;19.38;13.70;;;15.60;55.20;;;;;;4022558;29;20080;-58
2024/03/08 08:27:53;;;;;;;23.65;14.05;;;15.50;55.20;;;;;;4025992;29;20425;-58
2024/03/08 08:30:34;;;;;;;22.65;14.63;;;15.50;56.20;;;;;;4009334;29;20072;-57
2024/03/08 08:33:15;;;;;;;21.85;14.93;;;15.50;55.40;;;;;;4016949;29;20056;-58
2024/03/08 08:35:58;;;;;;;22.33;14.98;;;15.50;55.50;;;;;;4014355;29;20065;-58
2024/03/08 08:38:39;;;;;;;22.00;16.45;;;15.50;55.80;;;;;;4023888;29;20056;-56
2024/03/08 08:41:21;;;;;;;20.85;14.73;;;15.50;56.30;;;;;;4019504;29;20056;-54
2024/03/08 08:44:02;;;;;;;21.55;15.30;;;15.50;55.90;;;;;;4023753;29;20157;-53
2024/03/08 08:46:49;;;;;;;21.30;15.00;;;15.40;54.80;;;;;;4029690;29;20394;-54
2024/03/08 08:49:31;;;;;;;25.00;17.23;;;15.40;55.10;;;;;;4019847;29;20067;-56
2024/03/08 08:52:15;;;;;;;23.23;15.73;;;15.40;54.40;;;;;;4018433;29;20078;-57
2024/03/08 08:54:57;;;;;;;19.83;15.13;;;15.30;54.40;;;;;;4024572;29;20068;-57
2024/03/08 08:57:38;;;;;;;22.67;15.88;;;15.30;54.50;;;;;;4028568;29;20059;-55
2024/03/08 09:00:20;;;;;;;22.10;15.25;;;15.30;53.60;;;;;;4012893;29;20394;-57
2024/03/08 09:03:02;;;;;;;21.95;16.92;;;15.20;55.00;;;;;;4016936;29;20181;-56
2024/03/08 09:05:43;;;;;;;22.35;15.23;;;15.20;55.50;;;;;;4043035;29;20063;-58
2024/03/08 09:08:27;;;;;;;20.50;16.08;;;15.20;54.80;;;;;;4029419;29;20413;-58
2024/03/08 09:11:10;;;;;;;24.98;16.80;;;15.20;55.10;;;;;;4012501;29;20104;-59
2024/03/08 09:13:52;;;;;;;22.30;15.25;;;15.20;55.00;;;;;;4014364;29;20069;-58
2024/03/08 09:16:34;;;;;;;21.00;15.57;;;15.20;55.70;;;;;;4015352;29;20076;-57
2024/03/08 09:19:15;;;;;;;21.17;17.08;;;15.10;55.60;;;;;;4001912;29;20061;-58
2024/03/08 09:21:57;;;;;;;23.48;17.25;;;15.10;55.40;;;;;;4013241;29;20049;-57
2024/03/08 09:24:40;;;;;;;20.25;16.13;;;15.10;55.60;;;;;;4012396;29;20513;-58
2024/03/08 09:27:21;;;;;;;20.50;14.27;;;15.00;55.70;;;;;;4013526;29;20065;-58
2024/03/08 09:30:02;;;;;;;27.58;17.33;;;15.00;56.40;;;;;;4013866;29;20055;-58
2024/03/08 09:32:44;;;;;;;25.58;17.50;;;15.00;56.30;;;;;;4020676;29;20976;-58
2024/03/08 09:35:25;;;;;;;21.50;15.90;;;15.00;56.00;;;;;;4023729;29;20520;-58
2024/03/08 09:38:10;;;;;;;;;;;14.90;54.90;;;;;;4018753;29;20105;-57
2024/03/08 09:40:55;;;;;;;24.25;16.27;;;14.90;56.40;;;;;;4018946;29;20065;-58
2024/03/08 09:43:37;;;;;;;23.42;16.45;;;14.90;57.30;;;;;;4023502;29;20112;-55
2024/03/08 09:46:19;;;;;;;;;;;15.00;57.50;;;;;;4020254;29;20056;-57
2024/03/08 09:49:01;;;;;;;22.80;16.88;;;15.10;55.80;;;;;;4013043;29;20355;-54
2024/03/08 09:51:41;;;;;;;;;;;15.10;55.90;;;;;;4009031;29;20436;-57
2024/03/08 09:54:24;;;;;;;24.13;16.00;;;15.10;55.00;;;;;;4016962;29;20049;-57
2024/03/08 09:57:09;;;;;;;27.45;18.38;;;15.10;55.80;;;;;;4022786;29;20067;-57
2024/03/08 09:59:50;;;;;;;24.60;15.30;;;15.20;57.20;;;;;;4017426;29;20048;-57
2024/03/08 10:02:31;;;;;;;23.80;17.38;;;15.20;57.00;;;;;;4013216;29;20104;-56
2024/03/08 10:05:13;;;;;;;21.60;17.90;;;15.20;57.00;;;;;;4008801;29;20233;-56
2024/03/08 10:07:55;;;;;;;23.88;17.00;;;15.30;57.30;;;;;;4019955;29;20196;-56
2024/03/08 10:10:37;;;;;;;21.77;14.73;;;15.40;56.90;;;;;;4019671;29;20056;-56
2024/03/08 10:13:19;;;;;;;23.60;16.38;;;15.40;57.20;;;;;;4024152;29;20108;-55
2024/03/08 10:16:02;;;;;;;24.10;15.82;;;15.40;56.40;;;;;;4023292;29;20084;-55
2024/03/08 10:18:42;;;;;;;24.05;16.65;;;15.40;56.80;;;;;;4022544;29;20068;-55
2024/03/08 10:21:25;;;;;;;23.70;15.68;;;15.50;57.20;;;;;;4011299;29;20059;-53
2024/03/08 10:24:06;;;;;;;24.38;17.38;;;15.50;57.30;;;;;;4009984;29;20189;-55
2024/03/08 10:26:47;;;;;;;24.20;17.27;;;15.50;57.40;;;;;;4019416;29;20057;-52
2024/03/08 10:29:30;;;;;;;24.58;16.85;;;15.60;57.30;;;;;;3999953;29;20462;-57
2024/03/08 10:32:11;;;;;;;25.05;17.17;;;15.70;56.20;;;;;;4010013;29;20053;-57
2024/03/08 10:34:52;;;;;;;23.10;16.90;;;15.70;56.20;;;;;;4020046;29;20514;-57
2024/03/08 10:37:34;;;;;;;22.50;15.32;;;15.80;56.80;;;;;;4025267;29;20068;-56
2024/03/08 10:40:17;;;;;;;;;;;15.70;56.80;;;;;;4015584;29;20089;-52
2024/03/08 10:42:59;;;;;;;25.25;17.98;;;15.70;56.60;;;;;;4015394;29;20071;-56
2024/03/08 10:45:45;;;;;;;24.15;17.27;;;15.70;56.90;;;;;;4024788;29;20127;-55
2024/03/08 10:48:31;;;;;;;24.95;18.15;;;15.60;56.30;;;;;;4017429;29;20096;-55
2024/03/08 10:51:16;;;;;;;23.08;18.67;;;15.50;55.80;;;;;;4022537;29;20063;-55
2024/03/08 10:54:03;;;;;;;23.50;14.98;;;15.40;56.10;;;;;;4024635;29;20103;-56
2024/03/08 10:56:44;;;;;;;24.40;17.90;;;15.30;56.00;;;;;;4018298;29;20167;-56
2024/03/08 10:59:27;;;;;;;26.38;18.48;;;15.20;56.20;;;;;;3998302;29;20146;-56
2024/03/08 11:02:11;;;;;;;23.02;15.30;;;15.20;56.70;;;;;;4016742;29;20590;-56
2024/03/08 11:04:54;;;;;;;25.40;17.17;;;15.10;57.10;;;;;;4012245;29;20057;-56
2024/03/08 11:07:42;;;;;;;25.33;18.58;;;15.10;58.00;;;;;;4023708;29;20185;-57
2024/03/08 11:10:24;;;;;;;25.73;18.55;;;15.10;57.30;;;;;;4011730;29;20099;-57
2024/03/08 11:13:05;;;;;;;24.00;17.65;;;15.00;57.60;;;;;;4013351;29;20052;-57
2024/03/08 11:15:48;;;;;;;24.38;17.73;;;15.00;58.00;;;;;;4014958;29;20509;-57
2024/03/08 11:18:34;;;;;;;24.27;17.80;;;15.10;57.70;;;;;;4023959;29;20084;-57
2024/03/08 11:21:15;;;;;;;25.35;18.10;;;15.10;57.70;;;;;;4017835;29;20511;-57
2024/03/08 11:24:00;;;;;;;;;;;15.10;57.70;;;;;;4014448;29;20060;-56
2024/03/08 11:26:41;;;;;;;27.55;18.15;;;15.10;57.70;;;;;;4021029;29;20027;-55
2024/03/08 11:29:37;;;;;;;26.10;18.02;;;15.10;57.90;;;;;;4002287;29;20065;-57
2024/03/08 11:32:21;;;;;;;24.75;19.23;;;15.10;56.40;;;;;;4007097;29;20228;-56
2024/03/08 11:35:08;;;;;;;28.02;20.00;;;15.10;57.40;;;;;;4014097;29;20068;-56
2024/03/08 11:37:50;;;;;;;23.52;17.95;;;15.10;57.30;;;;;;4021797;29;20190;-43
2024/03/08 11:40:33;;;;;;;26.25;19.25;;;15.00;57.70;;;;;;4015536;29;20064;-41
2024/03/08 11:43:14;;;;;;;26.00;18.55;;;15.00;56.60;;;;;;4017732;29;20068;-41
2024/03/08 11:46:09;;;;;;;25.23;17.33;;;15.00;55.50;;;;;;4019027;29;20064;-41
2024/03/08 11:48:50;;;;;;;25.73;18.08;;;14.90;55.60;;;;;;4014100;29;20068;-41
2024/03/08 11:51:33;;;;;;;26.67;19.45;;;14.90;56.40;;;;;;4010320;29;20065;-43
2024/03/08 11:54:14;;;;;;;28.80;18.25;;;14.90;56.60;;;;;;4009734;29;20489;-41
2024/03/08 11:57:00;;;;;;;28.33;19.10;;;14.80;57.00;;;;;;4012638;29;20064;-40
2024/03/08 11:59:42;;;;;;;26.65;17.73;;;14.80;56.10;;;;;;4009896;29;20061;-41
2024/03/08 12:02:23;;;;;;;27.85;17.65;;;14.80;55.60;;;;;;4012475;29;20060;-41
2024/03/08 12:05:09;;;;;;;25.40;18.08;;;14.80;56.20;;;;;;4020656;29;20097;-45
2024/03/08 12:07:58;;;;;;;22.80;16.85;;;14.70;56.00;;;;;;4015261;29;20062;-40
2024/03/08 12:10:41;;;;;;;27.33;19.20;;;14.60;56.20;;;;;;4011747;29;20068;-42
2024/03/08 12:13:23;;;;;;;27.77;18.58;;;14.60;56.30;;;;;;4023985;29;20710;-46
2024/03/08 12:16:05;;;;;;;25.38;18.67;;;14.50;56.40;;;;;;4011155;29;20517;-43
2024/03/08 12:18:47;;;;;;;25.55;18.75;;;14.50;56.90;;;;;;4024008;29;20071;-41
2024/03/08 12:21:29;;;;;;;31.67;20.52;;;14.40;55.90;;;;;;4022390;29;20387;-43
2024/03/08 12:24:16;;;;;;;26.10;20.08;;;14.40;55.60;;;;;;4010284;29;20063;-42
2024/03/08 12:26:57;;;;;;;27.27;17.58;;;14.30;57.00;;;;;;4016994;29;20051;-45
2024/03/08 12:29:39;;;;;;;24.80;17.40;;;14.30;56.80;;;;;;4009397;29;20636;-46
2024/03/08 12:32:23;;;;;;;25.05;17.42;;;14.30;56.70;;;;;;4009339;29;20064;-41
2024/03/08 12:35:10;;;;;;;25.48;18.70;;;14.30;56.90;;;;;;4023274;29;20514;-42
2024/03/08 12:37:53;;;;;;;23.48;16.25;;;14.30;56.20;;;;;;4016057;29;20065;-42
2024/03/08 12:40:40;;;;;;;27.77;20.52;;;14.30;56.00;;;;;;4010961;29;20197;-40
2024/03/08 12:43:21;;;;;;;25.23;18.05;;;14.30;56.20;;;;;;4024318;29;20189;-42
2024/03/08 12:46:04;;;;;;;23.00;17.70;;;14.20;56.80;;;;;;4014790;29;20064;-43
2024/03/08 12:48:46;;;;;;;23.95;13.90;;;14.20;56.10;;;;;;4011756;29;20060;-47
2024/03/08 12:51:29;;;;;;;28.15;19.08;;;14.20;55.80;;;;;;4012743;29;20537;-41
2024/03/08 12:54:10;;;;;;;23.40;17.60;;;14.10;54.50;;;;;;4011799;29;20059;-41
2024/03/08 12:56:54;;;;;;;28.48;18.13;;;14.20;54.20;;;;;;4015640;29;20060;-42
2024/03/08 12:59:36;;;;;;;24.70;16.60;;;14.20;54.30;;;;;;4012663;29;20069;-41
2024/03/08 13:02:16;;;;;;;23.00;16.73;;;14.10;56.30;;;;;;4011121;29;20064;-43
2024/03/08 13:04:58;;;;;;;22.92;17.33;;;14.20;56.60;;;;;;4011599;29;20651;-43
2024/03/08 13:07:39;;;;;;;;;;;14.20;57.40;;;;;;4017236;29;20085;-42
2024/03/08 13:10:20;;;;;;;23.80;15.82;;;14.20;56.20;;;;;;4019413;29;20017;-42
2024/03/08 13:13:04;;;;;;;20.75;16.65;;;14.20;56.40;;;;;;4026511;29;21103;-42
2024/03/08 13:15:45;;;;;;;21.23;16.42;;;14.20;55.30;;;;;;4012846;29;20056;-44
2024/03/08 13:18:27;;;;;;;21.90;14.52;;;14.20;55.30;;;;;;4014707;29;20109;-43
2024/03/08 13:21:09;;;;;;;26.55;17.38;;;14.20;56.50;;;;;;4020107;29;20099;-42
2024/03/08 13:23:52;;;;;;;23.23;15.18;;;14.20;55.10;;;;;;4015587;29;20632;-44
2024/03/08 13:26:34;;;;;;;21.63;14.52;;;14.20;55.00;;;;;;4025988;29;20216;-44
2024/03/08 13:29:18;;;;;;;26.40;17.38;;;14.20;55.70;;;;;;4011995;29;20065;-44
2024/03/08 13:32:01;;;;;;;21.15;17.33;;;14.20;56.10;;;;;;4014716;29;20056;-44
2024/03/08 13:34:43;;;;;;;21.88;15.95;;;14.30;55.10;;;;;;4018697;29;20059;-45
2024/03/08 13:37:24;;;;;;;21.23;14.90;;;14.30;56.10;;;;;;4014128;29;20062;-43
2024/03/08 13:40:10;;;;;;;22.80;15.75;;;14.30;55.90;;;;;;3999288;29;20069;-46
2024/03/08 13:42:52;;;;;;;22.25;16.25;;;14.30;55.40;;;;;;4014852;29;20522;-44
2024/03/08 13:45:37;;;;;;;22.15;16.88;;;14.30;55.40;;;;;;4012329;29;20060;-43
2024/03/08 13:48:22;;;;;;;22.48;16.65;;;14.30;55.20;;;;;;4015310;29;20391;-44
2024/03/08 13:51:03;;;;;;;17.38;14.05;;;14.40;56.00;;;;;;4000077;29;20205;-45
2024/03/08 13:53:44;;;;;;;21.60;16.80;;;14.40;55.00;;;;;;4010880;29;20067;-42
2024/03/08 13:56:26;;;;;;;22.63;15.98;;;14.30;53.50;;;;;;4025841;29;20079;-43
2024/03/08 13:59:09;;;;;;;23.45;15.88;;;14.30;54.80;;;;;;4016315;29;20132;-41